Wetterstation Vordersexau
Wetterdaten: Woche 28.01.13 - 03.02.13 (KW5)
Datum Zeit Temp. A. Feuchte A. Luftdruck Regen Wind Richtung Taupunkt Windchill Windben
28.01.2013 00:00 2,9 C 86 % 1007,7 hPa 0,0 l/m 0,0 km/h O-NO 0,8 C 2,9 C 0,0 km/h
28.01.2013 01:00 2,8 C 85 % 1008,5 hPa 0,5 l/m 0,0 km/h SO 0,5 C 2,8 C 0,0 km/h
28.01.2013 02:00 2,7 C 84 % 1009,2 hPa 1,0 l/m 0,0 km/h SO 0,3 C 2,7 C 0,0 km/h
28.01.2013 03:00 2,5 C 84 % 1009,7 hPa 0,0 l/m 0,0 km/h S-SO 0,1 C 2,5 C 0,0 km/h
28.01.2013 04:00 2,5 C 83 % 1010,6 hPa 0,0 l/m 0,0 km/h O-SO -0,1 C 2,5 C 0,0 km/h
28.01.2013 05:00 2,6 C 82 % 1011,3 hPa 0,0 l/m 0,0 km/h O-SO -0,2 C 2,6 C 0,0 km/h
28.01.2013 06:00 2,4 C 82 % 1012,2 hPa 0,0 l/m 0,0 km/h O-SO -0,4 C 2,4 C 0,0 km/h
28.01.2013 07:00 2,4 C 81 % 1012,7 hPa 0,5 l/m 0,0 km/h O-SO -0,5 C 2,4 C 0,0 km/h
28.01.2013 08:00 1,8 C 81 % 1013,6 hPa 0,0 l/m 0,0 km/h O-SO -1,1 C 1,8 C 0,0 km/h
28.01.2013 09:00 2,5 C 80 % 1013,7 hPa 0,0 l/m 0,0 km/h S-SO -0,6 C 2,5 C 0,0 km/h
28.01.2013 10:00 5,9 C 76 % 1014,8 hPa 0,0 l/m 2,6 km/h W-SW 2,0 C 5,9 C 1,4 km/h
28.01.2013 11:00 10,9 C 82 % 1015,5 hPa 0,0 l/m 0,0 km/h W-NW 7,9 C 10,9 C 0,0 km/h
28.01.2013 12:00 10,8 C 73 % 1015,7 hPa 0,0 l/m 3,9 km/h W-NW 6,2 C 10,8 C 2,2 km/h
28.01.2013 13:00 9,9 C 71 % 1015,8 hPa 0,0 l/m 13,6 km/h W-NW 4,9 C 5,6 C 7,6 km/h
28.01.2013 14:00 9,9 C 69 % 1016,4 hPa 0,0 l/m 11,0 km/h W-NW 4,5 C 6,9 C 6,1 km/h
28.01.2013 15:00 10,2 C 65 % 1016,7 hPa 0,0 l/m 16,2 km/h W 3,9 C 4,9 C 9,0 km/h
28.01.2013 16:00 6,9 C 76 % 1017,6 hPa 0,0 l/m 6,5 km/h W 3,0 C 6,8 C 3,6 km/h
28.01.2013 17:00 6,1 C 78 % 1017,9 hPa 0,0 l/m 4,5 km/h W-SW 2,6 C 6,1 C 2,5 km/h
28.01.2013 18:00 5,8 C 81 % 1018,6 hPa 0,0 l/m 23,3 km/h SW 2,8 C -3,3 C 13,0 km/h
28.01.2013 19:00 5,3 C 81 % 1019,1 hPa 0,0 l/m 22,0 km/h W-SW 2,3 C -3,5 C 12,2 km/h
28.01.2013 20:00 4,8 C 82 % 1019,0 hPa 0,0 l/m 14,3 km/h W-SW 2,0 C -0,8 C 7,9 km/h
28.01.2013 21:00 4,6 C 82 % 1018,5 hPa 0,0 l/m 22,7 km/h W-SW 1,8 C -4,7 C 12,6 km/h
28.01.2013 22:00 4,9 C 81 % 1018,0 hPa 0,0 l/m 14,9 km/h W 1,9 C -1,0 C 8,3 km/h
28.01.2013 23:00 5,3 C 77 % 1018,6 hPa 0,0 l/m 7,1 km/h W-SW 1,6 C 4,7 C 4,0 km/h
29.01.2013 00:00 4,9 C 77 % 1018,4 hPa 0,0 l/m 16,8 km/h W-SW 1,2 C -1,9 C 9,4 km/h
29.01.2013 01:00 6,1 C 71 % 1018,4 hPa 0,0 l/m 11,0 km/h SW 1,2 C 2,6 C 6,1 km/h
29.01.2013 02:00 6,3 C 69 % 1018,2 hPa 0,0 l/m 32,4 km/h W-NW 1,0 C -5,1 C 18,0 km/h
29.01.2013 03:00 6,9 C 67 % 1017,9 hPa 0,0 l/m 19,4 km/h NW 1,2 C -0,5 C 10,8 km/h
29.01.2013 04:00 7,9 C 69 % 1017,7 hPa 0,0 l/m 30,5 km/h W 2,6 C -2,4 C 16,9 km/h
29.01.2013 05:00 7,9 C 71 % 1017,2 hPa 0,0 l/m 9,1 km/h W 3,0 C 5,9 C 5,0 km/h
29.01.2013 06:00 8,1 C 72 % 1017,4 hPa 0,0 l/m 14,9 km/h W 3,4 C 2,9 C 8,3 km/h
29.01.2013 07:00 6,6 C 80 % 1017,0 hPa 0,0 l/m 21,4 km/h W-NW 3,4 C -1,6 C 11,9 km/h
29.01.2013 08:00 7,3 C 79 % 1016,8 hPa 0,5 l/m 16,2 km/h W-NW 3,9 C 1,3 C 9,0 km/h
29.01.2013 09:00 8,2 C 78 % 1016,9 hPa 0,0 l/m 22,7 km/h W 4,6 C 0,1 C 12,6 km/h
29.01.2013 10:00 8,1 C 78 % 1017,1 hPa 0,0 l/m 21,4 km/h W-NW 4,5 C 0,4 C 11,9 km/h
29.01.2013 11:00 8,9 C 74 % 1017,0 hPa 0,0 l/m 14,9 km/h W-NW 4,5 C 3,8 C 8,3 km/h
29.01.2013 12:00 9,5 C 73 % 1016,8 hPa 0,0 l/m 31,8 km/h W-NW 4,9 C -0,4 C 17,6 km/h
29.01.2013 13:00 9,6 C 74 % 1016,7 hPa 0,0 l/m 24,0 km/h W-NW 5,2 C 1,6 C 13,3 km/h
29.01.2013 14:00 8,8 C 79 % 1016,4 hPa 0,0 l/m 24,0 km/h W 5,4 C 0,5 C 13,3 km/h
29.01.2013 15:00 8,1 C 84 % 1016,7 hPa 0,0 l/m 20,1 km/h W 5,6 C 0,8 C 11,2 km/h
29.01.2013 16:00 8,3 C 85 % 1017,3 hPa 0,5 l/m 46,7 km/h W-SW 5,9 C -4,5 C 25,9 km/h
29.01.2013 17:00 8,5 C 84 % 1017,3 hPa 0,0 l/m 39,5 km/h W-SW 6,0 C -3,3 C 22,0 km/h
29.01.2013 18:00 8,2 C 85 % 1017,7 hPa 0,0 l/m 13,6 km/h W 5,8 C 3,6 C 7,6 km/h
29.01.2013 19:00 8,8 C 84 % 1017,8 hPa 0,0 l/m 26,6 km/h W 6,2 C -0,2 C 14,8 km/h
29.01.2013 20:00 8,9 C 85 % 1018,2 hPa 0,0 l/m 19,4 km/h W-NW 6,5 C 2,1 C 10,8 km/h
29.01.2013 21:00 8,8 C 85 % 1018,3 hPa 0,0 l/m 10,4 km/h W 6,4 C 6,0 C 5,8 km/h
29.01.2013 22:00 9,3 C 85 % 1018,1 hPa 0,0 l/m 15,6 km/h W 6,9 C 4,0 C 8,6 km/h
29.01.2013 23:00 9,6 C 85 % 1018,1 hPa 0,0 l/m 21,4 km/h W 7,2 C 2,3 C 11,9 km/h
30.01.2013 00:00 9,9 C 85 % 1018,1 hPa 0,0 l/m 11,0 km/h W 7,5 C 6,9 C 6,1 km/h
30.01.2013 01:00 10,1 C 84 % 1017,6 hPa 0,0 l/m 22,7 km/h W 7,5 C 2,6 C 12,6 km/h
30.01.2013 02:00 10,8 C 82 % 1017,4 hPa 0,0 l/m 19,4 km/h W-NW 7,9 C 4,5 C 10,8 km/h
30.01.2013 03:00 10,9 C 83 % 1017,2 hPa 0,0 l/m 26,6 km/h W 8,1 C 2,7 C 14,8 km/h
30.01.2013 04:00 11,6 C 81 % 1016,9 hPa 0,0 l/m 36,3 km/h W-NW 8,5 C 1,8 C 20,2 km/h
30.01.2013 05:00 12,0 C 80 % 1016,8 hPa 0,0 l/m 46,0 km/h W 8,7 C 1,1 C 25,6 km/h
30.01.2013 06:00 12,1 C 81 % 1016,7 hPa 0,0 l/m 42,1 km/h W-NW 8,9 C 1,7 C 23,4 km/h
30.01.2013 07:00 12,4 C 81 % 1016,3 hPa 0,0 l/m 29,2 km/h NW 9,2 C 4,2 C 16,2 km/h
30.01.2013 08:00 12,9 C 80 % 1016,1 hPa 0,0 l/m 26,6 km/h NW 9,5 C 5,4 C 14,8 km/h
30.01.2013 09:00 13,6 C 76 % 1016,1 hPa 0,0 l/m 29,2 km/h W-SW 9,4 C 5,9 C 16,2 km/h
30.01.2013 10:00 14,3 C 73 % 1015,7 hPa 0,0 l/m 20,1 km/h W 9,5 C 8,8 C 11,2 km/h
30.01.2013 11:00 14,8 C 71 % 1015,4 hPa 0,0 l/m 20,1 km/h W-NW 9,6 C 9,5 C 11,2 km/h
30.01.2013 12:00 14,8 C 72 % 1014,9 hPa 0,0 l/m 46,7 km/h W 9,8 C 5,3 C 25,9 km/h
30.01.2013 13:00 14,1 C 76 % 1014,2 hPa 0,0 l/m 55,1 km/h W-SW 9,9 C 3,6 C 30,6 km/h
30.01.2013 14:00 14,1 C 76 % 1013,3 hPa 0,0 l/m 27,9 km/h W-SW 9,9 C 6,8 C 15,5 km/h
30.01.2013 15:00 13,8 C 77 % 1012,3 hPa 0,0 l/m 42,8 km/h W 9,8 C 4,2 C 23,8 km/h
30.01.2013 16:00 13,4 C 81 % 1012,4 hPa 0,0 l/m 31,8 km/h W-SW 10,2 C 5,1 C 17,6 km/h
30.01.2013 17:00 11,9 C 84 % 1012,6 hPa 0,5 l/m 51,2 km/h W 9,3 C 0,5 C 28,4 km/h
30.01.2013 18:00 11,6 C 83 % 1013,0 hPa 0,5 l/m 40,2 km/h W 8,8 C 1,2 C 22,3 km/h
30.01.2013 19:00 11,5 C 83 % 1013,9 hPa 0,0 l/m 27,9 km/h N 8,7 C 3,2 C 15,5 km/h
30.01.2013 20:00 9,6 C 84 % 1016,1 hPa 2,6 l/m 0,0 km/h NW 7,0 C 9,6 C 0,0 km/h
30.01.2013 21:00 9,6 C 85 % 1017,7 hPa 0,0 l/m 9,7 km/h N 7,2 C 7,3 C 5,4 km/h
30.01.2013 22:00 9,7 C 79 % 1019,0 hPa 0,0 l/m 1,3 km/h W 6,2 C 9,7 C 0,7 km/h
30.01.2013 23:00 9,3 C 78 % 1020,1 hPa 0,0 l/m 1,3 km/h NW 5,7 C 9,3 C 0,7 km/h
31.01.2013 00:00 8,8 C 72 % 1022,0 hPa 0,0 l/m 1,9 km/h NW 4,0 C 8,8 C 1,1 km/h
31.01.2013 01:00 7,2 C 73 % 1022,1 hPa 0,0 l/m 1,3 km/h W 2,7 C 7,2 C 0,7 km/h
31.01.2013 02:00 7,3 C 84 % 1022,5 hPa 0,0 l/m 21,4 km/h W 4,8 C -0,7 C 11,9 km/h
31.01.2013 03:00 7,1 C 83 % 1022,9 hPa 0,0 l/m 9,7 km/h W 4,4 C 4,6 C 5,4 km/h
31.01.2013 04:00 6,4 C 82 % 1021,9 hPa 0,0 l/m 1,9 km/h W-SW 3,6 C 6,4 C 1,1 km/h
31.01.2013 05:00 6,7 C 79 % 1022,0 hPa 0,0 l/m 20,7 km/h W 3,3 C -1,2 C 11,5 km/h
31.01.2013 06:00 5,9 C 80 % 1022,1 hPa 0,0 l/m 2,6 km/h W 2,7 C 5,9 C 1,4 km/h
31.01.2013 07:00 5,7 C 81 % 1021,8 hPa 0,0 l/m 1,3 km/h NO 2,7 C 5,7 C 0,7 km/h
31.01.2013 08:00 3,1 C 85 % 1022,0 hPa 0,0 l/m 0,0 km/h O-NO 0,8 C 3,1 C 0,0 km/h
31.01.2013 09:00 4,5 C 85 % 1021,5 hPa 0,0 l/m 1,9 km/h W-SW 2,2 C 4,5 C 1,1 km/h
31.01.2013 10:00 8,9 C 78 % 1020,7 hPa 0,0 l/m 49,9 km/h SW 5,3 C -4,0 C 27,7 km/h
31.01.2013 11:00 10,2 C 72 % 1021,1 hPa 0,0 l/m 40,8 km/h W-SW 5,4 C -0,9 C 22,7 km/h
31.01.2013 12:00 9,4 C 73 % 1019,8 hPa 0,0 l/m 20,1 km/h W 4,8 C 2,5 C 11,2 km/h
31.01.2013 13:00 11,9 C 65 % 1019,0 hPa 0,0 l/m 21,4 km/h W-NW 5,5 C 5,3 C 11,9 km/h
31.01.2013 14:00 11,2 C 62 % 1018,2 hPa 0,0 l/m 28,5 km/h W 4,2 C 2,7 C 15,8 km/h
31.01.2013 15:00 11,4 C 63 % 1017,4 hPa 0,0 l/m 22,7 km/h W 4,6 C 4,3 C 12,6 km/h
31.01.2013 16:00 10,2 C 68 % 1017,1 hPa 0,0 l/m 33,0 km/h W-NW 4,6 C 0,3 C 18,4 km/h
31.01.2013 17:00 9,6 C 69 % 1017,0 hPa 0,0 l/m 25,3 km/h W-NW 4,2 C 1,2 C 14,0 km/h
31.01.2013 18:00 9,5 C 71 % 1017,1 hPa 0,0 l/m 44,1 km/h W-NW 4,5 C -2,4 C 24,5 km/h
31.01.2013 19:00 9,2 C 75 % 1017,1 hPa 0,0 l/m 17,5 km/h W 5,0 C 3,1 C 9,7 km/h
31.01.2013 20:00 9,5 C 78 % 1017,1 hPa 0,0 l/m 16,2 km/h NW 5,9 C 4,0 C 9,0 km/h
31.01.2013 21:00 8,3 C 84 % 1017,5 hPa 0,5 l/m 5,8 km/h W 5,8 C 8,3 C 3,2 km/h
31.01.2013 22:00 7,9 C 85 % 1017,7 hPa 1,6 l/m 2,6 km/h W-SW 5,5 C 7,9 C 1,4 km/h
31.01.2013 23:00 8,3 C 84 % 1017,5 hPa 0,0 l/m 5,8 km/h W-SW 5,8 C 8,3 C 3,2 km/h
01.02.2013 00:00 8,3 C 85 % 1017,7 hPa 0,0 l/m 12,3 km/h SW 5,9 C 4,4 C 6,8 km/h
01.02.2013 01:00 8,3 C 85 % 1016,8 hPa 0,0 l/m 5,2 km/h W 5,9 C 8,3 C 2,9 km/h
01.02.2013 02:00 7,3 C 85 % 1016,6 hPa 0,5 l/m 1,3 km/h NW 4,9 C 7,3 C 0,7 km/h
01.02.2013 03:00 6,9 C 83 % 1015,6 hPa 2,6 l/m 0,0 km/h W 4,2 C 6,9 C 0,0 km/h
01.02.2013 04:00 6,9 C 81 % 1014,5 hPa 0,0 l/m 2,6 km/h W 3,9 C 6,9 C 1,4 km/h
01.02.2013 05:00 8,3 C 85 % 1013,2 hPa 0,0 l/m 20,1 km/h W-NW 5,9 C 1,1 C 11,2 km/h
01.02.2013 06:00 8,6 C 84 % 1012,3 hPa 0,0 l/m 9,7 km/h W 6,1 C 6,2 C 5,4 km/h
01.02.2013 07:00 7,6 C 85 % 1012,0 hPa 0,5 l/m 11,0 km/h W-NW 5,2 C 4,3 C 6,1 km/h
01.02.2013 08:00 7,2 C 85 % 1010,9 hPa 0,0 l/m 30,5 km/h W-SW 4,9 C -3,4 C 16,9 km/h
01.02.2013 09:00 6,4 C 85 % 1010,1 hPa 0,5 l/m 26,6 km/h W 4,1 C -3,5 C 14,8 km/h
01.02.2013 10:00 6,4 C 85 % 1008,9 hPa 0,0 l/m 16,2 km/h W 4,1 C 0,2 C 9,0 km/h
01.02.2013 11:00 6,6 C 84 % 1008,1 hPa 0,0 l/m 11,7 km/h W-SW 4,1 C 2,8 C 6,5 km/h
01.02.2013 12:00 7,1 C 84 % 1006,0 hPa 0,0 l/m 14,3 km/h W 4,6 C 2,0 C 7,9 km/h
01.02.2013 13:00 7,9 C 82 % 1003,1 hPa 0,0 l/m 0,0 km/h S-SW 5,0 C 7,9 C 0,0 km/h
01.02.2013 14:00 8,1 C 83 % 1001,1 hPa 0,0 l/m 1,9 km/h W-SW 5,4 C 8,1 C 1,1 km/h
01.02.2013 15:00 8,9 C 85 % 999,0 hPa 0,5 l/m 16,2 km/h W 6,5 C 3,3 C 9,0 km/h
01.02.2013 16:00 9,9 C 85 % 997,2 hPa 0,0 l/m 18,8 km/h W 7,5 C 3,6 C 10,4 km/h
01.02.2013 17:00 10,1 C 85 % 995,9 hPa 0,5 l/m 27,2 km/h W 7,7 C 1,4 C 15,1 km/h
01.02.2013 18:00 10,6 C 85 % 994,5 hPa 0,5 l/m 25,9 km/h W 8,2 C 2,4 C 14,4 km/h
01.02.2013 19:00 10,6 C 85 % 993,4 hPa 0,0 l/m 20,1 km/h W-NW 8,2 C 4,0 C 11,2 km/h
01.02.2013 20:00 10,3 C 85 % 992,3 hPa 0,0 l/m 32,4 km/h W 7,9 C 0,6 C 18,0 km/h
01.02.2013 21:00 9,9 C 83 % 991,5 hPa 1,0 l/m 22,0 km/h NW 7,2 C 2,5 C 12,2 km/h
01.02.2013 22:00 8,1 C 82 % 992,1 hPa 7,3 l/m 0,0 km/h SO 5,2 C 8,1 C 0,0 km/h
01.02.2013 23:00 7,8 C 80 % 991,5 hPa 2,1 l/m 0,0 km/h S-SO 4,6 C 7,8 C 0,0 km/h
02.02.2013 00:00 7,4 C 78 % 990,7 hPa 0,5 l/m 0,0 km/h S-SO 3,8 C 7,4 C 0,0 km/h
02.02.2013 01:00 7,3 C 77 % 990,6 hPa 3,1 l/m 3,9 km/h N 3,5 C 7,3 C 2,2 km/h
02.02.2013 02:00 6,5 C 76 % 991,7 hPa 3,1 l/m 0,0 km/h O-NO 2,6 C 6,5 C 0,0 km/h
02.02.2013 03:00 4,9 C 83 % 992,6 hPa 3,1 l/m 0,0 km/h N 2,3 C 4,9 C 0,0 km/h
02.02.2013 04:00 4,4 C 82 % 994,2 hPa 1,0 l/m 13,6 km/h NO 1,6 C -0,9 C 7,6 km/h
02.02.2013 05:00 3,6 C 83 % 995,7 hPa 1,0 l/m 5,2 km/h N 1,0 C 3,6 C 2,9 km/h
02.02.2013 06:00 3,1 C 84 % 996,5 hPa 1,0 l/m 5,8 km/h N-NO 0,7 C 3,1 C 3,2 km/h
02.02.2013 07:00 3,2 C 83 % 997,9 hPa 0,0 l/m 0,0 km/h NO 0,6 C 3,2 C 0,0 km/h
02.02.2013 08:00 3,3 C 83 % 999,8 hPa 0,0 l/m 0,0 km/h O-SO 0,7 C 3,3 C 0,0 km/h
02.02.2013 09:00 3,3 C 82 % 1000,7 hPa 0,0 l/m 0,0 km/h SO 0,5 C 3,3 C 0,0 km/h
02.02.2013 10:00 4,1 C 82 % 1001,4 hPa 0,0 l/m 0,0 km/h NO 1,3 C 4,1 C 0,0 km/h
02.02.2013 11:00 5,1 C 86 % 1002,0 hPa 0,0 l/m 0,0 km/h N 3,0 C 5,1 C 0,0 km/h
02.02.2013 12:00 5,1 C 85 % 1002,3 hPa 0,0 l/m 0,0 km/h N-NW 2,8 C 5,1 C 0,0 km/h
02.02.2013 13:00 6,3 C 81 % 1001,9 hPa 0,0 l/m 1,9 km/h N 3,3 C 6,3 C 1,1 km/h
02.02.2013 14:00 6,3 C 80 % 1002,2 hPa 0,0 l/m 0,0 km/h N 3,1 C 6,3 C 0,0 km/h
02.02.2013 15:00 6,3 C 76 % 1002,6 hPa 0,0 l/m 0,0 km/h S 2,4 C 6,3 C 0,0 km/h
02.02.2013 16:00 5,5 C 78 % 1003,1 hPa 0,0 l/m 0,0 km/h O-NO 2,0 C 5,5 C 0,0 km/h
02.02.2013 17:00 4,1 C 83 % 1004,1 hPa 0,5 l/m 0,0 km/h S 1,5 C 4,1 C 0,0 km/h
02.02.2013 18:00 2,3 C 86 % 1005,1 hPa 1,0 l/m 0,0 km/h NO 0,2 C 2,3 C 0,0 km/h
02.02.2013 19:00 1,2 C 85 % 1006,7 hPa 1,0 l/m 1,3 km/h O-NO -1,0 C 1,2 C 0,7 km/h
02.02.2013 20:00 0,9 C 86 % 1008,4 hPa 0,0 l/m 0,0 km/h O-NO -1,2 C 0,9 C 0,0 km/h
02.02.2013 21:00 1,2 C 86 % 1009,8 hPa 0,5 l/m 1,3 km/h O-NO -0,9 C 1,2 C 0,7 km/h
02.02.2013 22:00 1,2 C 84 % 1011,1 hPa 0,0 l/m 7,1 km/h O-NO -1,2 C 0,5 C 4,0 km/h
02.02.2013 23:00 0,3 C 86 % 1011,8 hPa 0,0 l/m 0,0 km/h O-NO -1,8 C 0,3 C 0,0 km/h
03.02.2013 00:00 0,0 C 86 % 1012,8 hPa 0,0 l/m 0,0 km/h O-NO -2,1 C 0,0 C 0,0 km/h
03.02.2013 01:00 0,3 C 87 % 1013,5 hPa 0,0 l/m 0,0 km/h O-NO -1,6 C 0,3 C 0,0 km/h
03.02.2013 02:00 0,7 C 86 % 1014,4 hPa 0,0 l/m 0,0 km/h S-SO -1,4 C 0,7 C 0,0 km/h
03.02.2013 03:00 0,1 C 86 % 1015,3 hPa 0,0 l/m 0,0 km/h O-SO -2,0 C 0,1 C 0,0 km/h
03.02.2013 04:00 0,1 C 86 % 1016,1 hPa 0,0 l/m 0,0 km/h O-SO -2,0 C 0,1 C 0,0 km/h
03.02.2013 05:00 0,1 C 86 % 1016,7 hPa 0,0 l/m 0,0 km/h O-NO -2,0 C 0,1 C 0,0 km/h
03.02.2013 06:00 0,3 C 86 % 1017,6 hPa 0,0 l/m 0,0 km/h SO -1,8 C 0,3 C 0,0 km/h
03.02.2013 07:00 0,2 C 86 % 1017,7 hPa 0,0 l/m 0,0 km/h SO -1,9 C 0,2 C 0,0 km/h
03.02.2013 08:00 0,4 C 86 % 1018,7 hPa 0,0 l/m 0,0 km/h SO -1,7 C 0,4 C 0,0 km/h
03.02.2013 09:00 0,9 C 85 % 1019,7 hPa 0,0 l/m 0,0 km/h S -1,3 C 0,9 C 0,0 km/h
03.02.2013 10:00 2,1 C 86 % 1019,8 hPa 0,0 l/m 0,0 km/h W 0,0 C 2,1 C 0,0 km/h
03.02.2013 11:00 4,4 C 84 % 1020,2 hPa 0,0 l/m 0,0 km/h W-SW 1,9 C 4,4 C 0,0 km/h
03.02.2013 12:00 4,2 C 79 % 1019,8 hPa 0,0 l/m 0,0 km/h W 0,9 C 4,2 C 0,0 km/h
03.02.2013 13:00 5,3 C 76 % 1019,2 hPa 0,0 l/m 9,7 km/h W 1,4 C 2,6 C 5,4 km/h
03.02.2013 14:00 5,4 C 74 % 1019,8 hPa 0,0 l/m 3,2 km/h W-NW 1,1 C 5,4 C 1,8 km/h
03.02.2013 15:00 3,6 C 76 % 1019,3 hPa 0,0 l/m 5,2 km/h S-SW -0,2 C 3,6 C 2,9 km/h
03.02.2013 16:00 1,8 C 84 % 1019,5 hPa 0,0 l/m 0,0 km/h W -0,6 C 1,8 C 0,0 km/h
03.02.2013 17:00 2,2 C 85 % 1019,4 hPa 0,5 l/m 1,3 km/h W -0,1 C 2,2 C 0,7 km/h
03.02.2013 18:00 2,9 C 81 % 1019,2 hPa 0,0 l/m 1,3 km/h W-SW -0,0 C 2,9 C 0,7 km/h
03.02.2013 19:00 2,9 C 79 % 1019,3 hPa 0,5 l/m 19,4 km/h W-NW -0,4 C -5,6 C 10,8 km/h
03.02.2013 20:00 2,9 C 78 % 1019,6 hPa 0,0 l/m 15,6 km/h W -0,5 C -3,8 C 8,6 km/h
03.02.2013 21:00 2,9 C 76 % 1019,0 hPa 0,0 l/m 33,7 km/h W -0,9 C -10,3 C 18,7 km/h
03.02.2013 22:00 2,9 C 75 % 1018,6 hPa 0,5 l/m 7,1 km/h W-SW -1,1 C 2,2 C 4,0 km/h
03.02.2013 23:00 2,3 C 79 % 1018,4 hPa 0,0 l/m 11,0 km/h W-SW -1,0 C -1,7 C 6,1 km/h
Min-Datum _ 03.02.13 31.01.13 02.02.13 - 28.01.13 - 03.02.13 03.02.13 28.01.13
_ Min-Zeit 00:19 14:19 01:19 - 00:19 - 00:19 21:19 00:19
Minimum _ 0,0 C 62 % 990,6 hPa - 0,0 km/h - -2,1 C -10,3 C 0,0 km/h
Max-Datum _ 30.01.13 03.02.13 31.01.13 01.02.13 30.01.13 - 30.01.13 28.01.13 30.01.13
_ Max-Zeit 11:19 01:19 03:19 22:19 13:19 - 16:19 11:19 13:19
Maximum _ 14,8 C 87 % 1022,9 hPa 7,3 l/m 55,1 km/h
W-SW
- 10,2 C 10,9 C 30,6 km/h
W-SW
Durchschnitt _ 6,9 C 80 % 1013,1 hPa #42,5 l/m 13,2 km/h W 3,6 C 3,0 C 7,3 km/h
www.sexauwetter.de